Time;durP1;ratioP1;P1;durP2;ratioP2;P2;SDS_P1;SDS_P2;PMS_P1;PMS_P2;Temp;Humidity;BMP_temperature;BMP_pressure;BME280_temperature;BME280_humidity;BME280_pressure;Samples;Min_cycle;Max_cycle;Signal;HPM_P1;HPM_P2
2022/01/01 00:00:17;;;;;;;;;;;11.40;99.90;;;;;;5048587;28;19970;-82
2022/01/01 00:02:42;;;;;;;;;;;11.30;99.90;;;;;;5070042;28;20306;-82
2022/01/01 00:05:09;;;;;;;;;;;11.30;99.90;;;;;;5052216;28;19955;-82
2022/01/01 00:07:35;;;;;;;;;;;11.30;99.90;;;;;;5055388;28;19928;-82
2022/01/01 00:10:08;;;;;;;;;;;11.30;99.90;;;;;;5044240;28;19928;-82
2022/01/01 00:12:54;;;;;;;;;;;11.50;99.90;;;;;;5060037;28;19927;-82
2022/01/01 00:15:43;;;;;;;;;;;11.30;99.90;;;;;;5056757;28;19931;-82
2022/01/01 00:18:18;;;;;;;;;;;11.30;99.90;;;;;;5082253;27;19934;-82
2022/01/01 00:23:39;;;;;;;;;;;11.30;99.90;;;;;;5007254;28;20020;-82
2022/01/01 00:26:34;;;;;;;;;;;11.30;99.90;;;;;;5041200;28;20298;-82
2022/01/01 00:29:25;;;;;;;;;;;11.30;99.90;;;;;;5050235;28;19977;-82
2022/01/01 00:31:56;;;;;;;;;;;11.40;99.90;;;;;;5072419;28;19943;-82
2022/01/01 00:34:29;;;;;;;;;;;11.30;99.90;;;;;;5054146;28;20019;-82
2022/01/01 00:37:06;;;;;;;;;;;11.30;99.90;;;;;;5058031;28;20381;-82
2022/01/01 00:40:00;;;;;;;;;;;11.40;99.90;;;;;;5062802;28;20024;-82
2022/01/01 00:42:40;;;;;;;;;;;;;;;;;;;;;
2022/01/01 00:45:16;;;;;;;;;;;11.30;99.90;;;;;;5039673;27;19963;-82
2022/01/01 00:47:43;;;;;;;;;;;11.30;99.90;;;;;;5042474;28;19934;-82
2022/01/01 00:50:35;;;;;;;;;;;11.40;99.90;;;;;;5046951;27;19924;-82
2022/01/01 00:53:34;;;;;;;;;;;11.20;99.90;;;;;;5044816;28;19923;-83
2022/01/01 00:56:12;;;;;;;;;;;;;;;;;;;;;
2022/01/01 00:59:18;;;;;;;;;;;11.30;99.90;;;;;;5077971;28;20285;-82
2022/01/01 01:02:01;;;;;;;;;;;;;;;;;;;;;
2022/01/01 01:04:38;;;;;;;;;;;11.30;99.90;;;;;;5062779;28;19936;-82
2022/01/01 01:07:08;;;;;;;;;;;11.30;99.90;;;;;;5043076;28;20412;-82
2022/01/01 01:09:56;;;;;;;;;;;11.30;99.90;;;;;;5055982;28;20374;-82
2022/01/01 01:15:35;;;;;;;;;;;11.50;99.90;;;;;;5026698;28;19928;-82
2022/01/01 01:18:23;;;;;;;;;;;11.40;99.90;;;;;;5069388;27;19927;-82
2022/01/01 01:20:49;;;;;;;;;;;11.30;99.90;;;;;;5057268;28;19939;-82
2022/01/01 01:23:15;;;;;;;;;;;11.50;99.90;;;;;;5086149;28;19936;-82
2022/01/01 01:25:49;;;;;;;;;;;11.30;99.90;;;;;;5074212;28;20664;-82
2022/01/01 01:28:15;;;;;;;;;;;11.30;99.90;;;;;;5056975;27;20294;-83
2022/01/01 01:30:41;;;;;;;;;;;11.30;99.90;;;;;;5070995;27;19930;-82
2022/01/01 01:33:08;;;;;;;;;;;11.30;99.90;;;;;;5073662;28;20439;-83
2022/01/01 01:35:43;;;;;;;;;;;11.30;99.90;;;;;;5083500;27;19983;-82
2022/01/01 01:38:08;;;;;;;;;;;11.30;99.90;;;;;;5077148;27;19916;-82
2022/01/01 01:40:34;;;;;;;;;;;11.30;99.90;;;;;;5084208;27;20023;-82
2022/01/01 01:43:01;;;;;;;;;;;11.20;99.90;;;;;;5073915;27;20067;-82
2022/01/01 01:45:28;;;;;;;;;;;11.30;99.90;;;;;;5083758;27;20682;-82
2022/01/01 01:47:54;;;;;;;;;;;11.30;99.90;;;;;;5056521;27;19966;-82
2022/01/01 01:50:19;;;;;;;;;;;11.30;99.90;;;;;;5067817;28;20012;-82
2022/01/01 01:52:47;;;;;;;;;;;11.30;99.90;;;;;;5068702;27;19943;-82
2022/01/01 01:55:13;;;;;;;;;;;11.20;99.90;;;;;;5068103;28;19924;-82
2022/01/01 01:57:41;;;;;;;;;;;11.20;99.90;;;;;;5070428;28;19976;-82
2022/01/01 02:00:15;;;;;;;;;;;11.20;99.90;;;;;;5091779;27;19927;-82
2022/01/01 02:02:41;;;;;;;;;;;11.20;99.90;;;;;;5087846;27;19945;-82
2022/01/01 02:05:06;;;;;;;;;;;11.20;99.90;;;;;;5089397;28;20027;-82
2022/01/01 02:07:32;;;;;;;;;;;11.20;99.90;;;;;;5076695;28;19927;-82
2022/01/01 02:09:58;;;;;;;;;;;11.20;99.90;;;;;;5066885;28;19930;-82
2022/01/01 02:12:24;;;;;;;;;;;11.20;99.90;;;;;;5071328;28;20391;-82
2022/01/01 02:17:22;;;;;;;;;;;11.10;99.90;;;;;;5078818;28;19931;-82
2022/01/01 02:19:48;;;;;;;;;;;11.10;99.90;;;;;;5065486;28;20346;-82
2022/01/01 02:22:15;;;;;;;;;;;11.10;99.90;;;;;;5079333;28;19988;-83
2022/01/01 02:24:41;;;;;;;;;;;11.10;99.90;;;;;;5067234;28;20065;-82
2022/01/01 02:27:06;;;;;;;;;;;11.10;99.90;;;;;;5027869;28;19934;-82
2022/01/01 02:29:32;;;;;;;;;;;11.10;99.90;;;;;;5044958;28;20880;-82
2022/01/01 02:31:59;;;;;;;;;;;11.10;99.90;;;;;;5069390;28;20019;-82
2022/01/01 02:34:25;;;;;;;;;;;11.00;99.90;;;;;;5032291;28;20611;-82
2022/01/01 02:36:51;;;;;;;;;;;11.00;99.90;;;;;;5044914;28;19925;-82
2022/01/01 02:39:18;;;;;;;;;;;11.00;99.90;;;;;;5047877;28;19981;-82
2022/01/01 02:41:44;;;;;;;;;;;11.00;99.90;;;;;;5061231;28;19931;-82
2022/01/01 02:44:09;;;;;;;;;;;10.90;99.90;;;;;;5047773;28;20439;-83
2022/01/01 02:46:35;;;;;;;;;;;11.00;99.90;;;;;;5060139;28;19924;-83
2022/01/01 02:49:01;;;;;;;;;;;10.90;99.90;;;;;;5042010;28;19935;-83
2022/01/01 02:51:26;;;;;;;;;;;10.90;99.90;;;;;;5027633;28;20077;-83
2022/01/01 02:53:52;;;;;;;;;;;10.90;99.90;;;;;;5033360;28;19920;-83
2022/01/01 02:56:18;;;;;;;;;;;11.00;99.90;;;;;;5022202;28;19932;-83
2022/01/01 02:58:43;;;;;;;;;;;11.00;99.90;;;;;;5042513;28;19928;-83
2022/01/01 03:01:09;;;;;;;;;;;11.00;99.90;;;;;;5029087;28;20289;-83
2022/01/01 03:03:35;;;;;;;;;;;11.00;99.90;;;;;;5043794;28;19932;-83
2022/01/01 03:06:00;;;;;;;;;;;11.00;99.90;;;;;;5025487;28;19928;-83
2022/01/01 03:08:26;;;;;;;;;;;11.00;99.90;;;;;;5043272;28;19927;-83
2022/01/01 03:10:51;;;;;;;;;;;11.00;99.90;;;;;;5050639;28;20443;-83
2022/01/01 03:13:17;;;;;;;;;;;11.00;99.90;;;;;;5030347;28;19947;-83
2022/01/01 03:15:43;;;;;;;;;;;11.00;99.90;;;;;;5046244;28;19920;-83
2022/01/01 03:18:09;;;;;;;;;;;11.00;99.90;;;;;;5035852;28;19947;-83
2022/01/01 03:20:35;;;;;;;;;;;11.00;99.90;;;;;;5023731;28;20462;-83
2022/01/01 03:23:00;;;;;;;;;;;11.00;99.90;;;;;;5031456;28;19986;-82
2022/01/01 03:25:26;;;;;;;;;;;11.00;99.90;;;;;;5041078;28;20302;-82
2022/01/01 03:27:51;;;;;;;;;;;11.00;99.90;;;;;;5060069;28;19964;-83
2022/01/01 03:30:17;;;;;;;;;;;11.00;99.90;;;;;;5044895;28;19947;-83
2022/01/01 03:32:42;;;;;;;;;;;11.10;99.90;;;;;;5094069;27;19927;-82
2022/01/01 03:35:08;;;;;;;;;;;11.00;99.90;;;;;;5073079;28;20050;-83
2022/01/01 03:37:34;;;;;;;;;;;11.00;99.90;;;;;;5066087;28;20332;-83
2022/01/01 03:39:59;;;;;;;;;;;11.00;99.90;;;;;;5087324;28;19966;-83
2022/01/01 03:42:25;;;;;;;;;;;11.00;99.90;;;;;;5063542;28;20525;-83
2022/01/01 03:44:50;;;;;;;;;;;11.00;99.90;;;;;;5073454;28;19981;-83
2022/01/01 03:47:16;;;;;;;;;;;11.00;99.90;;;;;;5046790;28;19928;-83
2022/01/01 03:49:41;;;;;;;;;;;11.00;99.90;;;;;;5070731;28;19924;-83
2022/01/01 03:52:07;;;;;;;;;;;11.00;99.90;;;;;;5071884;28;19923;-83
2022/01/01 03:54:32;;;;;;;;;;;11.00;99.90;;;;;;5070882;27;20014;-83
2022/01/01 03:56:59;;;;;;;;;;;11.10;99.90;;;;;;5070749;27;19972;-83
2022/01/01 03:59:25;;;;;;;;;;;11.00;99.90;;;;;;5043692;28;20259;-83
2022/01/01 04:01:50;;;;;;;;;;;11.20;99.90;;;;;;5072458;28;20016;-83
2022/01/01 04:04:16;;;;;;;;;;;11.00;99.90;;;;;;5047100;28;20445;-82
2022/01/01 04:06:42;;;;;;;;;;;11.00;99.90;;;;;;5051243;27;19924;-82
2022/01/01 04:09:07;;;;;;;;;;;11.00;99.90;;;;;;5054765;28;19961;-82
2022/01/01 04:11:33;;;;;;;;;;;11.10;99.90;;;;;;5075342;27;19927;-82
2022/01/01 04:13:58;;;;;;;;;;;11.00;99.90;;;;;;5058002;28;19958;-82
2022/01/01 04:16:24;;;;;;;;;;;11.00;99.90;;;;;;5048104;28;19927;-82
2022/01/01 04:18:49;;;;;;;;;;;11.10;99.90;;;;;;5055190;28;19927;-82
2022/01/01 04:21:15;;;;;;;;;;;11.00;99.90;;;;;;5054319;28;19920;-82
2022/01/01 04:23:41;;;;;;;;;;;11.00;99.90;;;;;;5055680;28;20035;-82
2022/01/01 04:26:07;;;;;;;;;;;11.00;99.90;;;;;;5055501;28;19932;-82
2022/01/01 04:28:33;;;;;;;;;;;11.00;99.90;;;;;;5063895;28;19924;-82
2022/01/01 04:30:59;;;;;;;;;;;11.00;99.90;;;;;;5033849;28;20447;-82
2022/01/01 04:33:24;;;;;;;;;;;11.00;99.90;;;;;;5061274;28;19920;-82
2022/01/01 04:35:50;;;;;;;;;;;11.00;99.90;;;;;;5071838;28;20007;-82
2022/01/01 04:38:36;;;;;;;;;;;11.00;99.90;;;;;;5062644;27;19963;-82
2022/01/01 04:41:02;;;;;;;;;;;11.00;99.90;;;;;;5088824;27;20459;-82
2022/01/01 04:43:28;;;;;;;;;;;11.00;99.90;;;;;;5051426;28;19928;-82
2022/01/01 04:45:53;;;;;;;;;;;11.00;99.90;;;;;;5070094;28;19938;-82
2022/01/01 04:48:19;;;;;;;;;;;11.00;99.90;;;;;;5034484;28;19928;-82
2022/01/01 04:50:44;;;;;;;;;;;11.00;99.90;;;;;;5056567;28;20010;-81
2022/01/01 04:53:15;;;;;;;;;;;11.00;99.90;;;;;;5067163;28;20335;-82
2022/01/01 04:55:41;;;;;;;;;;;11.00;99.90;;;;;;5056615;28;20012;-82
2022/01/01 04:58:06;;;;;;;;;;;11.00;99.90;;;;;;5072557;27;20014;-82
2022/01/01 05:00:32;;;;;;;;;;;11.00;99.90;;;;;;5036620;28;19963;-82
2022/01/01 05:02:57;;;;;;;;;;;11.10;99.90;;;;;;5054938;28;19932;-82
2022/01/01 05:05:23;;;;;;;;;;;11.10;99.90;;;;;;5085011;28;19928;-82
2022/01/01 05:07:50;;;;;;;;;;;11.10;99.90;;;;;;5085905;28;19920;-82
2022/01/01 05:10:16;;;;;;;;;;;11.10;99.90;;;;;;5066440;28;19934;-82
2022/01/01 05:12:41;;;;;;;;;;;11.10;99.90;;;;;;5087848;28;19983;-82
2022/01/01 05:15:07;;;;;;;;;;;11.10;99.90;;;;;;5065401;27;19920;-82
2022/01/01 05:17:32;;;;;;;;;;;11.10;99.90;;;;;;5063923;27;19924;-82
2022/01/01 05:19:58;;;;;;;;;;;11.10;99.90;;;;;;5083847;28;19934;-82
2022/01/01 05:22:24;;;;;;;;;;;11.10;99.90;;;;;;5060493;28;20392;-82
2022/01/01 05:24:49;;;;;;;;;;;11.10;99.90;;;;;;5066115;28;19919;-82
2022/01/01 05:27:15;;;;;;;;;;;11.10;99.90;;;;;;5067306;28;20363;-82
2022/01/01 05:29:40;;;;;;;;;;;11.10;99.90;;;;;;5046330;28;19943;-82
2022/01/01 05:32:06;;;;;;;;;;;11.10;99.90;;;;;;5063375;28;20271;-82
2022/01/01 05:34:31;;;;;;;;;;;11.10;99.90;;;;;;5060870;28;19978;-82
2022/01/01 05:36:57;;;;;;;;;;;11.10;99.90;;;;;;5030065;28;19990;-82
2022/01/01 05:39:23;;;;;;;;;;;11.20;99.90;;;;;;5024787;28;19928;-82
2022/01/01 05:41:52;;;;;;;;;;;11.20;99.90;;;;;;5065764;28;19935;-82
2022/01/01 05:44:18;;;;;;;;;;;11.20;99.90;;;;;;5040306;28;19928;-83
2022/01/01 05:46:43;;;;;;;;;;;11.20;99.90;;;;;;5034169;28;19927;-82
2022/01/01 05:49:09;;;;;;;;;;;11.20;99.90;;;;;;5030156;28;20346;-82
2022/01/01 05:51:34;;;;;;;;;;;11.20;99.90;;;;;;5040943;28;19924;-82
2022/01/01 05:54:00;;;;;;;;;;;11.20;99.90;;;;;;5047381;28;20401;-82
2022/01/01 05:56:26;;;;;;;;;;;11.20;99.90;;;;;;5041826;28;19982;-83
2022/01/01 05:58:51;;;;;;;;;;;11.20;99.90;;;;;;5061863;28;20660;-82
2022/01/01 06:01:17;;;;;;;;;;;11.20;99.90;;;;;;5055369;28;20391;-82
2022/01/01 06:03:42;;;;;;;;;;;11.20;99.90;;;;;;5048537;28;19975;-83
2022/01/01 06:06:08;;;;;;;;;;;11.20;99.90;;;;;;5066596;28;19921;-83
2022/01/01 06:08:33;;;;;;;;;;;11.10;99.90;;;;;;5023056;28;19947;-82
2022/01/01 06:11:00;;;;;;;;;;;11.10;99.90;;;;;;5049985;28;20370;-82
2022/01/01 06:13:26;;;;;;;;;;;11.10;99.90;;;;;;5045112;28;19924;-83
2022/01/01 06:15:52;;;;;;;;;;;11.10;99.90;;;;;;5065382;28;19928;-83
2022/01/01 06:18:17;;;;;;;;;;;11.10;99.90;;;;;;5042580;28;20290;-83
2022/01/01 06:20:43;;;;;;;;;;;11.10;99.90;;;;;;5064144;28;20055;-83
2022/01/01 06:23:09;;;;;;;;;;;11.10;99.90;;;;;;5036164;28;19944;-83
2022/01/01 06:25:34;;;;;;;;;;;11.10;99.90;;;;;;5051899;28;19928;-82
2022/01/01 06:28:00;;;;;;;;;;;11.10;99.90;;;;;;5052601;28;19920;-83
2022/01/01 06:30:32;;;;;;;;;;;11.10;99.90;;;;;;5058753;28;20378;-83
2022/01/01 06:32:58;;;;;;;;;;;11.10;99.90;;;;;;5069610;28;19931;-82
2022/01/01 06:35:24;;;;;;;;;;;11.10;99.90;;;;;;5066546;28;20424;-82
2022/01/01 06:37:49;;;;;;;;;;;11.10;99.90;;;;;;5051239;28;19981;-83
2022/01/01 06:40:15;;;;;;;;;;;11.10;99.90;;;;;;5048116;28;19931;-83
2022/01/01 06:42:40;;;;;;;;;;;11.10;99.90;;;;;;5036552;28;20413;-83
2022/01/01 06:45:06;;;;;;;;;;;11.10;99.90;;;;;;5087692;28;19928;-83
2022/01/01 06:47:31;;;;;;;;;;;11.20;99.90;;;;;;5082854;28;20753;-83
2022/01/01 06:49:57;;;;;;;;;;;11.10;99.90;;;;;;5052041;28;20358;-83
2022/01/01 06:52:23;;;;;;;;;;;11.20;99.90;;;;;;5063366;28;19924;-83
2022/01/01 06:54:49;;;;;;;;;;;11.20;99.90;;;;;;5068956;28;19930;-83
2022/01/01 06:57:15;;;;;;;;;;;11.20;99.90;;;;;;5061174;28;20081;-83
2022/01/01 06:59:41;;;;;;;;;;;11.20;99.90;;;;;;5067307;28;20813;-83
2022/01/01 07:02:06;;;;;;;;;;;11.20;99.90;;;;;;5082629;28;19927;-83
2022/01/01 07:04:32;;;;;;;;;;;11.20;99.90;;;;;;5062183;28;19932;-83
2022/01/01 07:06:57;;;;;;;;;;;11.20;99.90;;;;;;5067329;28;19923;-83
2022/01/01 07:09:23;;;;;;;;;;;11.20;99.90;;;;;;5064620;28;19924;-83
2022/01/01 07:11:50;;;;;;;;;;;11.20;99.90;;;;;;5078620;28;19931;-83
2022/01/01 07:14:16;;;;;;;;;;;11.30;99.90;;;;;;5066553;28;20366;-83
2022/01/01 07:16:41;;;;;;;;;;;11.20;99.90;;;;;;5051526;27;19999;-83
2022/01/01 07:19:07;;;;;;;;;;;11.30;99.90;;;;;;5057811;28;19919;-83
2022/01/01 07:21:32;;;;;;;;;;;11.30;99.90;;;;;;5068048;28;20003;-83
2022/01/01 07:23:58;;;;;;;;;;;11.30;99.90;;;;;;5067240;28;19931;-83
2022/01/01 07:26:24;;;;;;;;;;;11.30;99.90;;;;;;5067964;27;19931;-83
2022/01/01 07:28:49;;;;;;;;;;;11.30;99.90;;;;;;5049911;28;19923;-83
2022/01/01 07:31:17;;;;;;;;;;;11.30;99.90;;;;;;5052751;28;19928;-83
2022/01/01 07:33:42;;;;;;;;;;;11.30;99.90;;;;;;5051459;28;19928;-83
2022/01/01 07:36:08;;;;;;;;;;;11.30;99.90;;;;;;5070591;28;19950;-83
2022/01/01 07:38:33;;;;;;;;;;;11.40;99.90;;;;;;5066604;28;19978;-83
2022/01/01 07:40:59;;;;;;;;;;;11.40;99.90;;;;;;5072687;28;19926;-83
2022/01/01 07:43:26;;;;;;;;;;;11.40;99.90;;;;;;5052870;28;19930;-83
2022/01/01 07:45:51;;;;;;;;;;;11.40;99.90;;;;;;5053822;28;19946;-83
2022/01/01 07:48:17;;;;;;;;;;;11.40;99.90;;;;;;5053481;28;20784;-83
2022/01/01 07:50:42;;;;;;;;;;;11.40;99.90;;;;;;5070155;28;19954;-83
2022/01/01 07:53:09;;;;;;;;;;;11.40;99.90;;;;;;5050676;28;19923;-83
2022/01/01 07:55:34;;;;;;;;;;;11.40;99.90;;;;;;5060867;28;21458;-83
2022/01/01 07:58:00;;;;;;;;;;;11.50;99.90;;;;;;5072452;28;19927;-82
2022/01/01 08:00:25;;;;;;;;;;;11.50;99.90;;;;;;5065432;27;20002;-83
2022/01/01 08:02:51;;;;;;;;;;;11.40;99.90;;;;;;5041158;28;19923;-83
2022/01/01 08:05:17;;;;;;;;;;;11.50;99.90;;;;;;5049693;28;19983;-83
2022/01/01 08:07:43;;;;;;;;;;;11.50;99.90;;;;;;5039723;28;19927;-83
2022/01/01 08:10:09;;;;;;;;;;;11.50;99.90;;;;;;5051720;28;19926;-83
2022/01/01 08:12:35;;;;;;;;;;;11.50;99.90;;;;;;5035775;28;19919;-82
2022/01/01 08:15:01;;;;;;;;;;;11.50;99.90;;;;;;5041392;28;19920;-83
2022/01/01 08:17:27;;;;;;;;;;;11.50;99.90;;;;;;5053027;28;20018;-83
2022/01/01 08:19:53;;;;;;;;;;;11.50;99.90;;;;;;5085464;27;20023;-83
2022/01/01 08:22:18;;;;;;;;;;;11.50;99.90;;;;;;5050983;28;20492;-83
2022/01/01 08:24:46;;;;;;;;;;;11.50;99.90;;;;;;5068525;27;19927;-83
2022/01/01 08:27:11;;;;;;;;;;;11.50;99.90;;;;;;5030171;28;20027;-83
2022/01/01 08:29:38;;;;;;;;;;;11.60;99.90;;;;;;5065813;28;19920;-83
2022/01/01 08:32:04;;;;;;;;;;;11.60;99.90;;;;;;5037118;28;19921;-83
2022/01/01 08:34:31;;;;;;;;;;;11.60;99.90;;;;;;5060475;28;19932;-83
2022/01/01 08:36:57;;;;;;;;;;;11.60;99.90;;;;;;5048489;28;20385;-83
2022/01/01 08:39:30;;;;;;;;;;;11.60;99.90;;;;;;5035931;28;20397;-82
2022/01/01 08:41:56;;;;;;;;;;;11.60;99.90;;;;;;5051132;28;19959;-82
2022/01/01 08:44:22;;;;;;;;;;;11.60;99.90;;;;;;5050231;28;19935;-83
2022/01/01 08:46:47;;;;;;;;;;;11.60;99.90;;;;;;5024318;28;19990;-83
2022/01/01 08:49:13;;;;;;;;;;;11.60;99.90;;;;;;5033559;28;20391;-83
2022/01/01 08:51:45;;;;;;;;;;;11.70;99.90;;;;;;5039987;28;19943;-83
2022/01/01 08:54:12;;;;;;;;;;;11.60;99.90;;;;;;5031105;28;19928;-83
2022/01/01 08:56:39;;;;;;;;;;;11.60;99.90;;;;;;5031755;28;19924;-83
2022/01/01 08:59:06;;;;;;;;;;;11.60;99.90;;;;;;5052608;28;20921;-83
2022/01/01 09:01:32;;;;;;;;;;;11.60;99.90;;;;;;5011905;28;22168;-83
2022/01/01 09:03:59;;;;;;;;;;;11.60;99.90;;;;;;5037423;28;19925;-83
2022/01/01 09:06:25;;;;;;;;;;;11.60;99.90;;;;;;5031736;28;19925;-83
2022/01/01 09:08:51;;;;;;;;;;;11.60;99.90;;;;;;5013769;28;19920;-83
2022/01/01 09:11:17;;;;;;;;;;;11.60;99.90;;;;;;5043081;28;20338;-83
2022/01/01 09:13:51;;;;;;;;;;;11.60;99.90;;;;;;5021413;28;20102;-83
2022/01/01 09:16:19;;;;;;;;;;;11.60;99.90;;;;;;5033880;28;19978;-84
2022/01/01 09:18:46;;;;;;;;;;;11.60;99.90;;;;;;5068456;28;19929;-83
2022/01/01 09:21:12;;;;;;;;;;;11.60;99.90;;;;;;5053723;28;19959;-83
2022/01/01 09:23:37;;;;;;;;;;;11.60;99.90;;;;;;5045220;28;20034;-83
2022/01/01 09:26:04;;;;;;;;;;;11.60;99.90;;;;;;5072173;28;20021;-83
2022/01/01 09:28:30;;;;;;;;;;;11.70;99.90;;;;;;5041592;28;20031;-82
2022/01/01 09:30:56;;;;;;;;;;;11.70;99.90;;;;;;5061896;28;19920;-82
2022/01/01 09:33:23;;;;;;;;;;;11.70;99.90;;;;;;5033317;28;20363;-83
2022/01/01 09:35:49;;;;;;;;;;;11.70;99.90;;;;;;5036343;28;19924;-82
2022/01/01 09:38:15;;;;;;;;;;;11.80;99.90;;;;;;5057494;28;19927;-82
2022/01/01 09:40:41;;;;;;;;;;;11.90;99.90;;;;;;5036567;28;19924;-82
2022/01/01 09:43:07;;;;;;;;;;;11.90;99.90;;;;;;5046376;28;19929;-82
2022/01/01 09:45:32;;;;;;;;;;;11.90;99.90;;;;;;5064533;28;19982;-83
2022/01/01 09:48:10;;;;;;;;;;;12.00;99.90;;;;;;5037153;28;19928;-82
2022/01/01 09:50:35;;;;;;;;;;;12.00;99.90;;;;;;5065762;28;19920;-83
2022/01/01 09:53:03;;;;;;;;;;;12.00;99.90;;;;;;5037654;28;19947;-82
2022/01/01 09:55:29;;;;;;;;;;;12.00;99.90;;;;;;5020799;28;19929;-83
2022/01/01 09:57:54;;;;;;;;;;;12.00;99.90;;;;;;5029646;28;19931;-83
2022/01/01 10:00:20;;;;;;;;;;;12.10;99.90;;;;;;5028206;28;19971;-81
2022/01/01 10:02:45;;;;;;;;;;;12.10;99.90;;;;;;5046271;28;21176;-82
2022/01/01 10:05:13;;;;;;;;;;;12.10;99.90;;;;;;5032485;28;19934;-80
2022/01/01 10:07:39;;;;;;;;;;;12.10;99.90;;;;;;5062677;28;20405;-81
2022/01/01 10:10:19;;;;;;;;;;;12.20;99.90;;;;;;5051448;28;19974;-79
2022/01/01 10:12:45;;;;;;;;;;;12.20;99.90;;;;;;5069096;28;20369;-82
2022/01/01 10:15:11;;;;;;;;;;;12.20;99.90;;;;;;5033181;28;19932;-81
2022/01/01 10:17:37;;;;;;;;;;;12.20;99.90;;;;;;5021028;28;19973;-81
2022/01/01 10:20:03;;;;;;;;;;;12.20;99.90;;;;;;5030743;28;19919;-83
2022/01/01 10:22:29;;;;;;;;;;;12.30;99.90;;;;;;5030129;28;19971;-81
2022/01/01 10:27:58;;;;;;;;;;;12.30;99.90;;;;;;5038956;28;19967;-83
2022/01/01 10:30:25;;;;;;;;;;;12.30;99.90;;;;;;5032122;28;19935;-83
2022/01/01 10:33:09;;;;;;;;;;;12.30;99.90;;;;;;5047680;28;19920;-81
2022/01/01 10:35:38;;;;;;;;;;;12.30;99.90;;;;;;5062968;28;20325;-80
2022/01/01 10:38:04;;;;;;;;;;;12.30;99.90;;;;;;5048708;28;19928;-83
2022/01/01 10:40:30;;;;;;;;;;;12.20;99.90;;;;;;5043213;28;20053;-82
2022/01/01 10:42:55;;;;;;;;;;;12.30;99.90;;;;;;5067387;28;20083;-82
2022/01/01 10:45:40;;;;;;;;;;;12.30;99.90;;;;;;5047622;28;20543;-83
2022/01/01 10:51:07;;;;;;;;;;;12.30;99.90;;;;;;5053012;28;20324;-83
2022/01/01 10:53:33;;;;;;;;;;;12.30;99.90;;;;;;5037697;28;19925;-82
2022/01/01 10:55:59;;;;;;;;;;;12.30;99.90;;;;;;5023969;28;21047;-81
2022/01/01 10:58:29;;;;;;;;;;;12.30;99.90;;;;;;5033800;28;20873;-83
2022/01/01 11:00:59;;;;;;;;;;;12.40;99.90;;;;;;5049430;28;19928;-83
2022/01/01 11:03:25;;;;;;;;;;;12.40;99.90;;;;;;5033873;28;19927;-83
2022/01/01 11:05:53;;;;;;;;;;;12.40;99.90;;;;;;5054900;28;19924;-82
2022/01/01 11:08:19;;;;;;;;;;;12.40;99.90;;;;;;5036484;28;19924;-82
2022/01/01 11:10:44;;;;;;;;;;;12.40;99.90;;;;;;5042664;28;19920;-85
2022/01/01 11:13:12;;;;;;;;;;;12.50;99.90;;;;;;5015895;28;20334;-82
2022/01/01 11:15:38;;;;;;;;;;;12.40;99.90;;;;;;5025273;28;22474;-85
2022/01/01 11:18:04;;;;;;;;;;;12.50;99.90;;;;;;5042676;28;20255;-84
2022/01/01 11:20:34;;;;;;;;;;;12.50;99.90;;;;;;5063976;28;19927;-84
2022/01/01 11:26:23;;;;;;;;;;;12.60;99.90;;;;;;5026665;28;19932;-86
2022/01/01 11:28:49;;;;;;;;;;;12.60;99.90;;;;;;5038955;28;19936;-85
2022/01/01 11:31:15;;;;;;;;;;;12.60;99.90;;;;;;5015321;28;19935;-84
2022/01/01 11:34:00;;;;;;;;;;;12.60;99.90;;;;;;5054632;28;19936;-85
2022/01/01 11:36:27;;;;;;;;;;;12.60;99.90;;;;;;5038143;28;20362;-84
2022/01/01 11:38:53;;;;;;;;;;;12.60;99.90;;;;;;5050142;28;20354;-84
2022/01/01 11:41:19;;;;;;;;;;;12.50;99.90;;;;;;5050729;28;20375;-82
2022/01/01 11:43:46;;;;;;;;;;;12.60;99.90;;;;;;5070152;28;19934;-83
2022/01/01 11:46:19;;;;;;;;;;;12.60;99.90;;;;;;5042763;28;19928;-83
2022/01/01 11:48:46;;;;;;;;;;;12.60;99.90;;;;;;5035212;28;20022;-83
2022/01/01 11:51:26;;;;;;;;;;;12.60;99.90;;;;;;5062982;28;19981;-85
2022/01/01 11:54:06;;;;;;;;;;;12.60;99.90;;;;;;5065956;28;19924;-83
2022/01/01 11:56:50;;;;;;;;;;;12.50;99.90;;;;;;5057557;28;19935;-85
2022/01/01 11:59:19;;;;;;;;;;;12.50;99.90;;;;;;5068069;28;20472;-84
2022/01/01 12:01:45;;;;;;;;;;;12.60;99.90;;;;;;5051121;28;19928;-83
2022/01/01 12:04:31;;;;;;;;;;;12.50;99.90;;;;;;5048272;28;19989;-83
2022/01/01 12:07:12;;;;;;;;;;;12.50;99.90;;;;;;5037097;28;19935;-86
2022/01/01 12:10:11;;;;;;;;;;;12.50;99.90;;;;;;5038608;28;20015;-84
2022/01/01 12:12:43;;;;;;;;;;;12.50;99.90;;;;;;5016448;28;20317;-84
2022/01/01 12:15:10;;;;;;;;;;;12.50;99.90;;;;;;5043563;28;20397;-84
2022/01/01 12:17:42;;;;;;;;;;;12.50;99.90;;;;;;5030202;28;19927;-84
2022/01/01 12:20:09;;;;;;;;;;;12.50;99.90;;;;;;5047640;28;19925;-84
2022/01/01 12:22:35;;;;;;;;;;;12.60;99.90;;;;;;5025975;28;19928;-83
2022/01/01 12:25:02;;;;;;;;;;;12.60;99.90;;;;;;5023098;28;19928;-84
2022/01/01 12:27:28;;;;;;;;;;;12.60;99.90;;;;;;5045600;28;19935;-84
2022/01/01 12:30:03;;;;;;;;;;;12.60;99.90;;;;;;5052220;28;19928;-84
2022/01/01 12:32:38;;;;;;;;;;;12.60;99.90;;;;;;5072561;28;19923;-83
2022/01/01 12:35:08;;;;;;;;;;;12.60;99.90;;;;;;5070928;28;19934;-84
2022/01/01 12:37:35;;;;;;;;;;;12.60;99.90;;;;;;5055604;28;19928;-83
2022/01/01 12:40:02;;;;;;;;;;;12.60;99.90;;;;;;5068715;28;19923;-84
2022/01/01 12:42:29;;;;;;;;;;;12.60;99.90;;;;;;5030882;28;20003;-83
2022/01/01 12:44:56;;;;;;;;;;;12.70;99.90;;;;;;5072070;28;19943;-83
2022/01/01 12:47:21;;;;;;;;;;;12.60;99.90;;;;;;5080033;27;19930;-82
2022/01/01 12:49:47;;;;;;;;;;;12.70;99.90;;;;;;5086857;27;19920;-84
2022/01/01 12:52:15;;;;;;;;;;;12.70;99.90;;;;;;5066506;28;19935;-83
2022/01/01 12:54:44;;;;;;;;;;;12.70;99.90;;;;;;5070841;28;19924;-85
2022/01/01 12:57:09;;;;;;;;;;;12.70;99.90;;;;;;5049655;28;19920;-83
2022/01/01 12:59:35;;;;;;;;;;;12.70;99.90;;;;;;5042096;28;19923;-84
2022/01/01 13:02:03;;;;;;;;;;;12.70;99.90;;;;;;5065971;28;19921;-83
2022/01/01 13:04:30;;;;;;;;;;;12.70;99.90;;;;;;5064033;27;19928;-83
2022/01/01 13:06:57;;;;;;;;;;;12.70;99.90;;;;;;5072714;27;19927;-84
2022/01/01 13:09:24;;;;;;;;;;;12.70;99.90;;;;;;5050558;28;19946;-83
2022/01/01 13:11:56;;;;;;;;;;;12.70;99.90;;;;;;5037133;28;20385;-83
2022/01/01 13:14:22;;;;;;;;;;;12.70;99.90;;;;;;5065550;28;20518;-83
2022/01/01 13:16:48;;;;;;;;;;;12.70;99.90;;;;;;5037145;28;19928;-83
2022/01/01 13:19:14;;;;;;;;;;;12.70;99.90;;;;;;5051262;28;20362;-83
2022/01/01 13:21:39;;;;;;;;;;;12.70;99.90;;;;;;5051429;27;19931;-83
2022/01/01 13:24:07;;;;;;;;;;;12.70;99.90;;;;;;5083059;27;19935;-83
2022/01/01 13:26:33;;;;;;;;;;;12.70;99.90;;;;;;5032160;28;19928;-84
2022/01/01 13:28:58;;;;;;;;;;;12.70;99.90;;;;;;5042891;28;19928;-84
2022/01/01 13:31:24;;;;;;;;;;;12.80;99.90;;;;;;5041736;28;19924;-84
2022/01/01 13:33:53;;;;;;;;;;;12.80;99.90;;;;;;5032559;28;20611;-83
2022/01/01 13:36:44;;;;;;;;;;;12.80;99.90;;;;;;5061538;28;19928;-84
2022/01/01 13:39:15;;;;;;;;;;;12.80;99.90;;;;;;5047088;28;19935;-84
2022/01/01 13:42:00;;;;;;;;;;;12.80;99.90;;;;;;5054499;28;19983;-83
2022/01/01 13:44:26;;;;;;;;;;;12.80;99.90;;;;;;5043288;28;19931;-83
2022/01/01 13:47:03;;;;;;;;;;;12.80;99.90;;;;;;5044049;28;20020;-83
2022/01/01 13:49:42;;;;;;;;;;;12.80;99.90;;;;;;5032681;28;20411;-83
2022/01/01 13:52:08;;;;;;;;;;;12.80;99.90;;;;;;5047283;28;20361;-83
2022/01/01 13:54:37;;;;;;;;;;;12.70;99.90;;;;;;5060212;28;20023;-83
2022/01/01 13:57:05;;;;;;;;;;;12.70;99.90;;;;;;5065206;28;20374;-83
2022/01/01 13:59:32;;;;;;;;;;;12.70;99.90;;;;;;5037437;28;23592;-83
2022/01/01 14:01:58;;;;;;;;;;;12.70;99.90;;;;;;5064776;28;19928;-82
2022/01/01 14:04:24;;;;;;;;;;;12.70;99.90;;;;;;5063060;28;20293;-83
2022/01/01 14:07:06;;;;;;;;;;;12.70;99.90;;;;;;5050028;28;19935;-83
2022/01/01 14:09:32;;;;;;;;;;;12.70;99.90;;;;;;5045459;28;21351;-83
2022/01/01 14:11:58;;;;;;;;;;;12.70;99.90;;;;;;5047158;28;20027;-83
2022/01/01 14:14:29;;;;;;;;;;;12.70;99.90;;;;;;5045143;28;19920;-83
2022/01/01 14:16:55;;;;;;;;;;;12.70;99.90;;;;;;5014962;28;19928;-83
2022/01/01 14:19:21;;;;;;;;;;;12.70;99.90;;;;;;5040858;28;19921;-83
2022/01/01 14:22:07;;;;;;;;;;;12.70;99.90;;;;;;5029667;28;20370;-83
2022/01/01 14:24:34;;;;;;;;;;;12.60;99.90;;;;;;5016512;28;20138;-84
2022/01/01 14:27:06;;;;;;;;;;;12.60;99.90;;;;;;5062854;28;19933;-84
2022/01/01 14:29:31;;;;;;;;;;;12.60;99.90;;;;;;5058264;28;23829;-83
2022/01/01 14:31:57;;;;;;;;;;;12.60;99.90;;;;;;5050974;28;19923;-83
2022/01/01 14:34:22;;;;;;;;;;;12.60;99.90;;;;;;5025852;28;19931;-83
2022/01/01 14:36:48;;;;;;;;;;;12.60;99.90;;;;;;5061211;28;20317;-83
2022/01/01 14:39:14;;;;;;;;;;;12.60;99.90;;;;;;5041699;28;19924;-83
2022/01/01 14:41:40;;;;;;;;;;;12.60;99.90;;;;;;5063246;28;19920;-83
2022/01/01 14:44:06;;;;;;;;;;;12.60;99.90;;;;;;5043861;28;19924;-83